This is the latest recevied weather packets stored in our database for station/object K4FB. If no packets are shown the sender has not sent any weather packets the latest 10 day(s).
| Time | Temp. | Humidity | Pressure | Rain* | Wind** | Luminosity | Snow |
|---|---|---|---|---|---|---|---|
| 1777326004 | 30° C | 58% | 1016.7 hPa | 0 mm | - | - | - |
| 1777324804 | 30° C | 67% | 1016.6 hPa | 0 mm | - | - | - |
| 1777322709 | 31.67° C | 54% | 1016.2 hPa | 0 mm | - | - | - |
| 1777322403 | 31.67° C | 51% | 1016.2 hPa | 0 mm | - | - | - |
| 1777321505 | 32.22° C | 51% | 1016 hPa | 0 mm | - | - | - |
| 1777317605 | 32.22° C | 51% | 1016.5 hPa | 0 mm | - | - | - |
| 1777317004 | 32.78° C | 52% | 1016.5 hPa | 0 mm | - | - | - |
| 1777315804 | 32.22° C | 51% | 1016.5 hPa | 0 mm | - | - | - |
| 1777315204 | 32.22° C | 53% | 1016.6 hPa | 0 mm | - | - | - |
| 1777314904 | 32.22° C | 50% | 1016.5 hPa | 0 mm | - | - | - |
| 1777313406 | 32.22° C | 51% | 1016.7 hPa | 0 mm | - | - | - |
| 1777313109 | 31.67° C | 53% | 1016.7 hPa | 0 mm | - | - | - |
| 1777312812 | 31.67° C | 51% | 1016.8 hPa | 0 mm | - | - | - |
| 1777309504 | 30.56° C | 56% | 1017.1 hPa | 0 mm | - | - | - |
| 1777307107 | 30.56° C | 58% | 1017.3 hPa | 0 mm | - | - | - |
| 1777305910 | 29.44° C | 63% | 1017.3 hPa | 0 mm | - | - | - |
| 1777303818 | 28.89° C | 64% | 1017.4 hPa | 0 mm | - | - | - |
| 1777303507 | 28.89° C | 64% | 1017.3 hPa | 0 mm | - | - | - |
| 1777300809 | 27.22° C | 71% | 1017.3 hPa | 0 mm | - | - | - |
| 1777299326 | 26.11° C | 76% | 1017.1 hPa | 0 mm | - | - | - |
| 1777298423 | 25° C | 78% | 1016.9 hPa | 0 mm | - | - | - |
| 1777296009 | 23.89° C | 83% | 1016.6 hPa | 0 mm | - | - | - |
| 1777293022 | 22.78° C | 86% | 1016.4 hPa | 0 mm | - | - | - |
| 1777292125 | 22.22° C | 87% | 1016.2 hPa | 0 mm | - | - | - |
| 1777291222 | 21.67° C | 91% | 1016.1 hPa | 0 mm | - | - | - |
* Rain latest hour (hover to see other rain measurements)
** Current wind speed in m/s (hover to see current wind gust speed)